Main page
METAR-TAF:

METAR-TAF

Airports :

Simón Bolívar International Airport

Caracas, Venezuela

latitude: 10-36N, longitude: 066-59W, elevation: 43 m

Current weather observation

The report was made 18 minutes ago, at 04:02 UTC
Wind 4 kt from the East
Temperature
Pressure 1015 hPa

METAR: SVMI 250402Z AUTO 08004KT NCD -40/// Q1015

Time: 00:20 (04:20 UTC)

Forecast

The report was made 12 hours and 20 minutes ago, at 16:00 UTC
Forecast valid from 24 at 18 UTC to 25 at 18 UTC
Wind 7 kt from the East
Visibility 10 km or more
Few clouds at a height of 1600 ft
Becoming
from 24 at 16 UTC to 24 at 22 UTC
Wind 10 kt from the East
Scattered clouds at a height of 1600 ft
Scattered clouds at a height of 10000 ft

TAF: SVMI 241600Z 2418/2518 09007KT 9999 FEW016 TX32/18Z TN24/08Z BECMG 2416/2422 09010KT SCT016 SCT100

Weather observations and forecasts of more than 4000 airports (METAR and TAF reports).

The available stations are represented by yellow and red dots on the map.

Hover mouse over dot to see the name of the station.

Then click to see weather observations and forecasts.

To change the map : click on the green buttons with a black cross to zoom in, on the green button with a dash to zoom out, or on the green arrows for adjacent maps.


METAR-TAF: